createdAt,value
2018-02-02T00:00:06.490Z,991.0
2018-02-02T00:01:08.091Z,991.0
2018-02-02T00:02:09.688Z,991.0
2018-02-02T00:03:11.290Z,991.1
2018-02-02T00:04:12.897Z,991.0
2018-02-02T00:05:14.506Z,990.9
2018-02-02T00:06:16.106Z,990.9
2018-02-02T00:07:18.203Z,990.9
2018-02-02T00:08:19.802Z,990.9
2018-02-02T00:09:21.404Z,990.9
2018-02-02T00:10:23.006Z,990.9
2018-02-02T00:11:24.609Z,990.9
2018-02-02T00:12:26.210Z,990.8
2018-02-02T00:13:27.818Z,990.8
2018-02-02T00:14:29.415Z,990.8
2018-02-02T00:15:31.013Z,990.7
2018-02-02T00:16:32.676Z,990.8
2018-02-02T00:17:34.236Z,990.7
2018-02-02T00:18:35.834Z,990.7
2018-02-02T00:19:37.437Z,990.6
2018-02-02T00:20:39.043Z,990.6
2018-02-02T00:21:40.645Z,990.7
2018-02-02T00:22:42.243Z,990.7
2018-02-02T00:23:43.843Z,990.6
2018-02-02T00:24:45.448Z,990.7
2018-02-02T00:25:47.048Z,990.6
2018-02-02T00:26:48.655Z,990.6
2018-02-02T00:27:50.255Z,990.6
2018-02-02T00:28:51.858Z,990.7
2018-02-02T00:29:53.456Z,990.7
2018-02-02T00:30:55.061Z,990.7
2018-02-02T00:31:56.665Z,990.6
2018-02-02T00:32:58.263Z,990.6
2018-02-02T00:33:59.869Z,990.6
2018-02-02T00:35:01.469Z,990.6
2018-02-02T00:36:03.075Z,990.6
2018-02-02T00:37:53.425Z,990.7
2018-02-02T00:38:55.028Z,990.7
2018-02-02T00:40:46.700Z,990.7
2018-02-02T00:41:48.303Z,990.6
2018-02-02T00:43:40.013Z,990.7
2018-02-02T00:44:41.609Z,990.6
2018-02-02T00:46:33.292Z,990.7
2018-02-02T00:47:34.888Z,990.6
2018-02-02T00:49:26.591Z,990.6
2018-02-02T00:50:28.188Z,990.6
2018-02-02T00:52:19.881Z,990.6
2018-02-02T00:53:21.477Z,990.6
2018-02-02T00:55:13.444Z,990.6
2018-02-02T00:56:15.770Z,990.7
2018-02-02T00:58:10.088Z,990.7
2018-02-02T00:59:11.662Z,990.6
2018-02-02T01:00:13.268Z,990.6
2018-02-02T01:01:14.866Z,990.6
2018-02-02T01:02:16.466Z,990.6
2018-02-02T01:03:18.107Z,990.6
2018-02-02T01:04:19.712Z,990.6
2018-02-02T01:05:21.312Z,990.5
2018-02-02T01:06:22.916Z,990.6
2018-02-02T01:07:24.516Z,990.6
2018-02-02T01:08:26.112Z,990.5
2018-02-02T01:09:27.966Z,990.5
2018-02-02T01:10:29.752Z,990.6
2018-02-02T01:11:31.483Z,990.5
2018-02-02T01:12:33.095Z,990.6
2018-02-02T01:13:34.700Z,990.6
2018-02-02T01:14:36.940Z,990.6
2018-02-02T01:15:38.554Z,990.6
2018-02-02T01:16:40.183Z,990.5
2018-02-02T01:17:42.038Z,990.6
2018-02-02T01:18:43.651Z,990.5
2018-02-02T01:19:45.257Z,990.5
2018-02-02T01:20:46.856Z,990.5
2018-02-02T01:21:48.482Z,990.5
2018-02-02T01:22:50.609Z,990.5
2018-02-02T01:23:52.253Z,990.5
2018-02-02T01:24:54.138Z,990.4
2018-02-02T01:25:55.742Z,990.5
2018-02-02T01:26:57.740Z,990.4
2018-02-02T01:27:59.342Z,990.4
2018-02-02T01:29:00.947Z,990.4
2018-02-02T01:30:02.551Z,990.4
2018-02-02T01:31:04.148Z,990.5
2018-02-02T01:32:05.753Z,990.4
2018-02-02T01:33:07.356Z,990.5
2018-02-02T01:34:09.425Z,990.4
2018-02-02T01:35:11.043Z,990.5
2018-02-02T01:36:13.168Z,990.4
2018-02-02T01:37:15.136Z,990.4
2018-02-02T01:38:17.334Z,990.5
2018-02-02T01:39:19.177Z,990.4
2018-02-02T01:40:20.952Z,990.5
2018-02-02T01:41:23.266Z,990.5
2018-02-02T01:42:25.087Z,990.6
2018-02-02T01:43:26.685Z,990.5
2018-02-02T01:44:28.752Z,990.5
2018-02-02T01:45:30.491Z,990.5
2018-02-02T01:46:32.098Z,990.5
2018-02-02T01:47:34.215Z,990.5
2018-02-02T01:48:35.822Z,990.5
2018-02-02T01:49:37.425Z,990.5
2018-02-02T01:50:39.032Z,990.5
2018-02-02T01:51:40.636Z,990.4
2018-02-02T01:52:42.236Z,990.4
2018-02-02T01:53:43.839Z,990.4
2018-02-02T01:54:46.038Z,990.5
2018-02-02T01:55:47.777Z,990.4
2018-02-02T01:56:49.926Z,990.5
2018-02-02T01:57:51.533Z,990.5
2018-02-02T01:58:53.139Z,990.4
2018-02-02T01:59:54.894Z,990.4
2018-02-02T02:00:56.876Z,990.4
2018-02-02T02:01:58.478Z,990.4
2018-02-02T02:03:00.598Z,990.4
2018-02-02T02:04:02.199Z,990.4
2018-02-02T02:05:04.527Z,990.4
2018-02-02T02:06:06.499Z,990.3
2018-02-02T02:07:08.103Z,990.4
2018-02-02T02:08:10.094Z,990.3
2018-02-02T02:09:11.832Z,990.3
2018-02-02T02:10:14.045Z,990.4
2018-02-02T02:11:15.985Z,990.4
2018-02-02T02:12:18.041Z,990.4
2018-02-02T02:13:19.886Z,990.4
2018-02-02T02:14:21.485Z,990.3
2018-02-02T02:15:23.088Z,990.3
2018-02-02T02:16:26.216Z,990.3
2018-02-02T02:17:27.861Z,990.2
2018-02-02T02:18:29.932Z,990.2
2018-02-02T02:19:31.535Z,990.3
2018-02-02T02:20:33.144Z,990.2
2018-02-02T02:21:34.743Z,990.2
2018-02-02T02:22:36.349Z,990.2
2018-02-02T02:23:37.951Z,990.2
2018-02-02T02:24:39.561Z,990.2
2018-02-02T02:25:41.156Z,990.2
2018-02-02T02:26:42.762Z,990.2
2018-02-02T02:27:44.358Z,990.1
2018-02-02T02:28:45.966Z,990.1
2018-02-02T02:29:47.566Z,990.1
2018-02-02T02:30:49.168Z,990.0
2018-02-02T02:31:50.773Z,990.0
2018-02-02T02:32:52.369Z,990.0
2018-02-02T02:33:53.977Z,990.0
2018-02-02T02:34:55.576Z,990.0
2018-02-02T02:35:57.182Z,989.9
2018-02-02T02:36:58.780Z,989.9
2018-02-02T02:38:00.389Z,990.0
2018-02-02T02:39:01.988Z,989.9
2018-02-02T02:40:03.595Z,989.9
2018-02-02T02:41:05.196Z,990.0
2018-02-02T02:42:06.795Z,989.9
2018-02-02T02:43:08.395Z,989.9
2018-02-02T02:44:10.000Z,989.9
2018-02-02T02:45:11.605Z,990.0
2018-02-02T02:46:13.207Z,989.9
2018-02-02T02:47:14.806Z,989.9
2018-02-02T02:48:16.411Z,989.9
2018-02-02T02:49:18.013Z,989.9
2018-02-02T02:50:19.616Z,990.0
2018-02-02T02:51:21.216Z,989.8
2018-02-02T02:52:22.826Z,989.9
2018-02-02T02:53:24.434Z,990.0
2018-02-02T02:54:26.030Z,989.9
2018-02-02T02:55:27.637Z,990.0
2018-02-02T02:56:29.233Z,989.9
2018-02-02T02:57:30.839Z,989.9
2018-02-02T02:58:32.439Z,989.9
2018-02-02T02:59:34.048Z,989.8
2018-02-02T03:00:35.648Z,989.8
2018-02-02T03:01:37.252Z,989.9
2018-02-02T03:02:38.851Z,989.8
2018-02-02T03:03:40.451Z,989.8
2018-02-02T03:04:42.057Z,989.9
2018-02-02T03:05:43.658Z,989.9
2018-02-02T03:06:45.265Z,989.9
2018-02-02T03:07:46.867Z,989.9
2018-02-02T03:08:48.469Z,989.9
2018-02-02T03:09:50.068Z,989.8
2018-02-02T03:10:51.675Z,989.9
2018-02-02T03:11:53.276Z,989.9
2018-02-02T03:12:54.883Z,989.9
2018-02-02T03:13:56.482Z,989.9
2018-02-02T03:14:58.089Z,989.9
2018-02-02T03:15:59.686Z,989.8
2018-02-02T03:17:01.289Z,989.8
2018-02-02T03:18:02.891Z,989.9
2018-02-02T03:19:04.497Z,989.8
2018-02-02T03:20:06.097Z,989.9
2018-02-02T03:21:07.705Z,989.8
2018-02-02T03:22:09.310Z,989.8
2018-02-02T03:23:10.906Z,989.9
2018-02-02T03:24:12.506Z,989.8
2018-02-02T03:25:14.114Z,989.8
2018-02-02T03:26:15.716Z,989.9
2018-02-02T03:27:17.315Z,989.8
2018-02-02T03:28:18.922Z,989.8
2018-02-02T03:29:20.520Z,989.8
2018-02-02T03:30:22.121Z,989.8
2018-02-02T03:31:23.725Z,989.8
2018-02-02T03:32:25.326Z,989.8
2018-02-02T03:33:26.926Z,989.8
2018-02-02T03:34:28.525Z,989.9
2018-02-02T03:35:30.134Z,989.8
2018-02-02T03:36:31.734Z,989.8
2018-02-02T03:37:33.338Z,989.8
2018-02-02T03:38:34.942Z,989.8
2018-02-02T03:39:36.542Z,989.8
2018-02-02T03:40:38.143Z,989.8
2018-02-02T03:41:39.748Z,989.8
2018-02-02T03:42:41.354Z,989.8
2018-02-02T03:43:42.953Z,989.9
2018-02-02T03:44:44.553Z,989.8
2018-02-02T03:45:46.158Z,989.8
2018-02-02T03:46:47.759Z,989.8
2018-02-02T03:47:49.358Z,989.9
2018-02-02T03:48:50.962Z,989.9
2018-02-02T03:49:52.567Z,989.8
2018-02-02T03:50:54.179Z,989.8
2018-02-02T03:51:55.778Z,989.8
2018-02-02T03:52:57.380Z,989.8
2018-02-02T03:53:58.983Z,989.8
2018-02-02T03:55:00.582Z,989.8
2018-02-02T03:56:02.180Z,989.8
2018-02-02T03:57:03.787Z,989.8
2018-02-02T03:58:05.389Z,989.8
2018-02-02T03:59:06.993Z,989.8
2018-02-02T04:00:08.588Z,989.8
2018-02-02T04:01:10.194Z,989.8
2018-02-02T04:02:11.791Z,989.8
2018-02-02T04:03:13.398Z,989.8
2018-02-02T04:04:15.006Z,989.8
2018-02-02T04:05:16.612Z,989.8
2018-02-02T04:06:18.214Z,989.8
2018-02-02T04:07:19.817Z,989.8
2018-02-02T04:08:21.418Z,989.8
2018-02-02T04:09:23.021Z,989.8
2018-02-02T04:10:24.625Z,989.8
2018-02-02T04:11:26.229Z,989.8
2018-02-02T04:12:27.827Z,989.8
2018-02-02T04:13:29.427Z,989.8
2018-02-02T04:14:31.034Z,989.7
2018-02-02T04:15:32.633Z,989.8
2018-02-02T04:16:34.237Z,989.8
2018-02-02T04:17:35.841Z,989.8
2018-02-02T04:18:37.443Z,989.8
2018-02-02T04:19:39.044Z,989.8
2018-02-02T04:20:40.641Z,989.8
2018-02-02T04:21:42.249Z,989.8
2018-02-02T04:22:43.846Z,989.9
2018-02-02T04:23:45.449Z,989.9
2018-02-02T04:24:47.055Z,989.9
2018-02-02T04:25:48.662Z,989.8
2018-02-02T04:26:50.263Z,989.8
2018-02-02T04:27:51.864Z,989.8
2018-02-02T04:28:53.468Z,989.8
2018-02-02T04:29:55.071Z,989.8
2018-02-02T04:30:56.671Z,989.9
2018-02-02T04:31:58.276Z,989.8
2018-02-02T04:32:59.877Z,989.8
2018-02-02T04:34:01.485Z,989.8
2018-02-02T04:35:03.087Z,989.9
2018-02-02T04:36:04.694Z,989.8
2018-02-02T04:37:06.292Z,989.8
2018-02-02T04:38:07.894Z,989.8
2018-02-02T04:39:09.499Z,989.9
2018-02-02T04:40:11.100Z,989.8
2018-02-02T04:41:12.701Z,989.9
2018-02-02T04:42:14.304Z,989.9
2018-02-02T04:43:15.906Z,989.9
2018-02-02T04:44:17.509Z,989.8
2018-02-02T04:45:19.109Z,989.9
2018-02-02T04:46:20.714Z,990.0
2018-02-02T04:47:22.315Z,989.9
2018-02-02T04:48:23.923Z,989.9
2018-02-02T04:49:25.525Z,989.9
2018-02-02T04:50:27.124Z,989.9
2018-02-02T04:51:28.725Z,989.9
2018-02-02T04:52:30.330Z,989.9
2018-02-02T04:53:31.927Z,989.9
2018-02-02T04:54:33.536Z,989.9
2018-02-02T04:55:35.137Z,989.9
2018-02-02T04:56:36.734Z,989.9
2018-02-02T04:57:38.337Z,989.9
2018-02-02T04:58:39.934Z,989.9
2018-02-02T04:59:41.541Z,989.8
2018-02-02T05:00:43.141Z,990.0
2018-02-02T05:01:44.750Z,989.8
2018-02-02T05:02:46.351Z,989.8
2018-02-02T05:03:47.955Z,989.8
2018-02-02T05:04:49.553Z,989.9
2018-02-02T05:05:51.158Z,989.9
2018-02-02T05:06:52.762Z,989.8
2018-02-02T05:07:54.367Z,989.8
2018-02-02T05:08:55.971Z,989.9
2018-02-02T05:09:57.572Z,989.9
2018-02-02T05:10:59.172Z,989.8
2018-02-02T05:12:00.777Z,989.8
2018-02-02T05:13:02.378Z,989.8
2018-02-02T05:14:03.974Z,989.8
2018-02-02T05:15:05.617Z,989.8
2018-02-02T05:16:07.184Z,989.8
2018-02-02T05:17:08.792Z,989.8
2018-02-02T05:18:10.386Z,989.8
2018-02-02T05:19:11.987Z,989.7
2018-02-02T05:20:13.593Z,989.8
2018-02-02T05:21:15.198Z,989.8
2018-02-02T05:22:16.797Z,989.7
2018-02-02T05:23:18.398Z,989.7
2018-02-02T05:24:20.003Z,989.7
2018-02-02T05:25:21.607Z,989.8
2018-02-02T05:26:23.209Z,989.7
2018-02-02T05:27:24.812Z,989.7
2018-02-02T05:28:26.414Z,989.7
2018-02-02T05:29:28.018Z,989.7
2018-02-02T05:30:29.622Z,989.6
2018-02-02T05:31:31.228Z,989.6
2018-02-02T05:32:32.828Z,989.7
2018-02-02T05:33:34.426Z,989.7
2018-02-02T05:34:36.036Z,989.7
2018-02-02T05:35:37.636Z,989.7
2018-02-02T05:36:39.236Z,989.7
2018-02-02T05:37:40.840Z,989.7
2018-02-02T05:38:42.449Z,989.7
2018-02-02T05:39:44.047Z,989.7
2018-02-02T05:40:45.646Z,989.6
2018-02-02T05:41:47.251Z,989.7
2018-02-02T05:42:48.852Z,989.7
2018-02-02T05:43:50.459Z,989.7
2018-02-02T05:44:52.060Z,989.7
2018-02-02T05:45:53.665Z,989.7
2018-02-02T05:46:55.263Z,989.7
2018-02-02T05:47:56.868Z,989.6
2018-02-02T05:48:58.465Z,989.6
2018-02-02T05:50:00.073Z,989.7
2018-02-02T05:51:01.672Z,989.6
2018-02-02T05:52:03.279Z,989.7
2018-02-02T05:53:04.880Z,989.7
2018-02-02T05:54:06.483Z,989.6
2018-02-02T05:55:08.083Z,989.7
2018-02-02T05:56:09.689Z,989.6
2018-02-02T05:57:11.295Z,989.7
2018-02-02T05:58:12.895Z,989.7
2018-02-02T05:59:14.505Z,989.6
2018-02-02T06:00:16.105Z,989.6
2018-02-02T06:01:17.708Z,989.7
2018-02-02T06:02:19.310Z,989.7
2018-02-02T06:03:20.916Z,989.6
2018-02-02T06:04:22.514Z,989.7
2018-02-02T06:05:24.126Z,989.6
2018-02-02T06:06:25.722Z,989.7
2018-02-02T06:07:27.328Z,989.7
2018-02-02T06:08:28.928Z,989.6
2018-02-02T06:09:30.530Z,989.6
2018-02-02T06:10:32.127Z,989.7
2018-02-02T06:11:33.736Z,989.7
2018-02-02T06:12:35.343Z,989.6
2018-02-02T06:13:36.944Z,989.7
2018-02-02T06:14:38.553Z,989.6
2018-02-02T06:15:40.150Z,989.7
2018-02-02T06:16:41.757Z,989.7
2018-02-02T06:17:43.354Z,989.6
2018-02-02T06:18:44.961Z,989.7
2018-02-02T06:19:46.561Z,989.6
2018-02-02T06:20:48.165Z,989.5
2018-02-02T06:21:49.771Z,989.6
2018-02-02T06:22:51.377Z,989.6
2018-02-02T06:23:52.973Z,989.6
2018-02-02T06:24:54.571Z,989.6
2018-02-02T06:25:56.180Z,989.6
2018-02-02T06:26:57.780Z,989.6
2018-02-02T06:27:59.390Z,989.6
2018-02-02T06:29:00.990Z,989.6
2018-02-02T06:30:02.595Z,989.6
2018-02-02T06:31:04.196Z,989.6
2018-02-02T06:32:05.796Z,989.6
2018-02-02T06:33:07.399Z,989.5
2018-02-02T06:34:09.008Z,989.6
2018-02-02T06:35:10.615Z,989.5
2018-02-02T06:36:12.216Z,989.6
2018-02-02T06:37:13.820Z,989.6
2018-02-02T06:38:15.419Z,989.7
2018-02-02T06:39:17.019Z,989.7
2018-02-02T06:40:18.626Z,989.7
2018-02-02T06:41:20.231Z,989.7
2018-02-02T06:42:21.832Z,989.7
2018-02-02T06:43:23.440Z,989.7
2018-02-02T06:44:25.038Z,989.7
2018-02-02T06:45:26.639Z,989.6
2018-02-02T06:46:28.243Z,989.7
2018-02-02T06:47:29.848Z,989.6
2018-02-02T06:48:31.449Z,989.7
2018-02-02T06:49:33.053Z,989.7
2018-02-02T06:50:34.661Z,989.8
2018-02-02T06:51:36.265Z,989.8
2018-02-02T06:52:37.864Z,989.8
2018-02-02T06:53:39.465Z,989.8
2018-02-02T06:54:41.073Z,989.7
2018-02-02T06:55:42.674Z,989.8
2018-02-02T06:56:44.287Z,989.7
2018-02-02T06:57:45.881Z,989.8
2018-02-02T06:58:47.488Z,989.8
2018-02-02T06:59:49.140Z,989.8
2018-02-02T07:00:50.695Z,989.7
2018-02-02T07:01:52.294Z,989.8
2018-02-02T07:02:53.901Z,989.9
2018-02-02T07:03:55.504Z,989.8
2018-02-02T07:04:57.113Z,989.8
2018-02-02T07:05:58.713Z,989.8
2018-02-02T07:07:00.325Z,989.8
2018-02-02T07:08:01.920Z,989.9
2018-02-02T07:09:03.531Z,989.9
2018-02-02T07:10:05.136Z,989.8
2018-02-02T07:11:06.737Z,989.8
2018-02-02T07:12:08.344Z,989.8
2018-02-02T07:13:09.943Z,989.9
2018-02-02T07:14:11.550Z,989.8
2018-02-02T07:15:13.153Z,989.8
2018-02-02T07:16:14.760Z,989.8
2018-02-02T07:17:16.365Z,989.8
2018-02-02T07:18:17.972Z,989.8
2018-02-02T07:19:19.583Z,989.9
2018-02-02T07:20:21.190Z,989.8
2018-02-02T07:21:22.793Z,989.8
2018-02-02T07:22:24.396Z,989.9
2018-02-02T07:23:26.008Z,989.9
2018-02-02T07:24:27.617Z,989.8
2018-02-02T07:25:29.220Z,989.9
2018-02-02T07:26:30.824Z,989.9
2018-02-02T07:27:32.437Z,989.8
2018-02-02T07:28:34.040Z,989.9
2018-02-02T07:29:35.643Z,989.9
2018-02-02T07:30:37.248Z,989.8
2018-02-02T07:31:38.859Z,989.9
2018-02-02T07:32:40.475Z,989.8
2018-02-02T07:33:42.079Z,989.8
2018-02-02T07:34:43.687Z,989.9
2018-02-02T07:35:45.289Z,989.9
2018-02-02T07:36:46.893Z,990.0
2018-02-02T07:37:48.504Z,990.0
2018-02-02T07:38:50.111Z,989.9
2018-02-02T07:39:51.715Z,989.9
2018-02-02T07:40:53.323Z,990.0
2018-02-02T07:41:54.930Z,990.0
2018-02-02T07:42:56.537Z,990.1
2018-02-02T07:43:58.140Z,990.0
2018-02-02T07:44:59.743Z,990.0
2018-02-02T07:46:01.353Z,990.0
2018-02-02T07:47:02.963Z,990.1
2018-02-02T07:48:04.569Z,990.1
2018-02-02T07:49:06.171Z,990.0
2018-02-02T07:50:07.779Z,990.0
2018-02-02T07:51:09.381Z,990.0
2018-02-02T07:52:10.992Z,990.1
2018-02-02T07:53:12.597Z,990.1
2018-02-02T07:54:14.204Z,990.0
2018-02-02T07:55:15.808Z,989.9
2018-02-02T07:56:17.415Z,990.0
2018-02-02T07:57:19.018Z,990.0
2018-02-02T07:58:20.628Z,990.0
2018-02-02T07:59:22.230Z,990.1
2018-02-02T08:00:23.839Z,990.0
2018-02-02T08:01:25.445Z,990.0
2018-02-02T08:02:27.058Z,990.1
2018-02-02T08:03:28.655Z,990.0
2018-02-02T08:04:30.266Z,990.0
2018-02-02T08:05:31.871Z,990.0
2018-02-02T08:06:33.479Z,989.9
2018-02-02T08:07:35.086Z,990.0
2018-02-02T08:08:36.691Z,990.0
2018-02-02T08:09:38.304Z,990.0
2018-02-02T08:10:39.903Z,990.1
2018-02-02T08:11:41.510Z,990.0
2018-02-02T08:12:43.113Z,990.1
2018-02-02T08:13:44.724Z,990.0
2018-02-02T08:14:46.329Z,990.1
2018-02-02T08:15:47.939Z,990.1
2018-02-02T08:16:49.549Z,990.1
2018-02-02T08:17:51.153Z,990.1
2018-02-02T08:18:52.756Z,990.1
2018-02-02T08:19:54.366Z,990.2
2018-02-02T08:20:55.976Z,990.0
2018-02-02T08:21:57.584Z,990.2
2018-02-02T08:22:59.187Z,990.1
2018-02-02T08:24:00.792Z,990.1
2018-02-02T08:25:02.395Z,990.1
2018-02-02T08:26:04.005Z,990.1
2018-02-02T08:27:05.609Z,990.1
2018-02-02T08:28:07.220Z,990.2
2018-02-02T08:29:08.823Z,990.2
2018-02-02T08:30:10.431Z,990.2
2018-02-02T08:31:12.037Z,990.2
2018-02-02T08:32:13.646Z,990.2
2018-02-02T08:33:15.250Z,990.2
2018-02-02T08:34:16.861Z,990.2
2018-02-02T08:35:18.466Z,990.4
2018-02-02T08:36:20.076Z,990.2
2018-02-02T08:37:21.681Z,990.2
2018-02-02T08:38:23.294Z,990.2
2018-02-02T08:39:24.896Z,990.2
2018-02-02T08:40:26.506Z,990.3
2018-02-02T08:41:28.114Z,990.3
2018-02-02T08:42:29.722Z,990.3
2018-02-02T08:43:31.333Z,990.4
2018-02-02T08:44:32.941Z,990.3
2018-02-02T08:45:34.555Z,990.3
2018-02-02T08:46:36.168Z,990.3
2018-02-02T08:47:37.761Z,990.3
2018-02-02T08:48:39.369Z,990.2
2018-02-02T08:49:40.980Z,990.4
2018-02-02T08:50:42.587Z,990.3
2018-02-02T08:51:44.198Z,990.3
2018-02-02T08:52:45.803Z,990.3
2018-02-02T08:53:47.415Z,990.3
2018-02-02T08:54:49.019Z,990.4
2018-02-02T08:55:50.630Z,990.3
2018-02-02T08:56:52.242Z,990.4
2018-02-02T08:57:53.855Z,990.3
2018-02-02T08:58:55.466Z,990.3
2018-02-02T08:59:57.072Z,990.3
2018-02-02T09:00:58.682Z,990.4
2018-02-02T09:02:00.290Z,990.3
2018-02-02T09:03:01.893Z,990.3
2018-02-02T09:04:03.501Z,990.4
2018-02-02T09:05:05.107Z,990.4
2018-02-02T09:06:06.761Z,990.4
2018-02-02T09:07:08.333Z,990.4
2018-02-02T09:08:09.936Z,990.3
2018-02-02T09:09:11.546Z,990.4
2018-02-02T09:10:13.157Z,990.4
2018-02-02T09:11:14.770Z,990.4
2018-02-02T09:12:16.374Z,990.3
2018-02-02T09:13:17.984Z,990.4
2018-02-02T09:14:19.592Z,990.3
2018-02-02T09:15:21.197Z,990.4
2018-02-02T09:16:22.805Z,990.4
2018-02-02T09:17:24.414Z,990.5
2018-02-02T09:18:26.022Z,990.5
2018-02-02T09:19:27.633Z,990.5
2018-02-02T09:20:29.245Z,990.5
2018-02-02T09:21:30.861Z,990.5
2018-02-02T09:22:32.462Z,990.5
2018-02-02T09:23:34.069Z,990.5
2018-02-02T09:24:35.678Z,990.5
2018-02-02T09:25:37.290Z,990.5
2018-02-02T09:26:38.895Z,990.5
2018-02-02T09:27:40.502Z,990.5
2018-02-02T09:28:42.116Z,990.5
2018-02-02T09:29:43.728Z,990.5
2018-02-02T09:30:45.338Z,990.5
2018-02-02T09:31:46.945Z,990.5
2018-02-02T09:32:48.572Z,990.5
2018-02-02T09:33:50.159Z,990.5
2018-02-02T09:34:51.773Z,990.5
2018-02-02T09:35:53.380Z,990.6
2018-02-02T09:36:54.993Z,990.5
2018-02-02T09:37:56.602Z,990.6
2018-02-02T09:38:58.207Z,990.6
2018-02-02T09:39:59.819Z,990.6
2018-02-02T09:41:01.425Z,990.6
2018-02-02T09:42:03.038Z,990.6
2018-02-02T09:43:04.643Z,990.6
2018-02-02T09:44:06.252Z,990.6
2018-02-02T09:45:07.854Z,990.6
2018-02-02T09:46:09.462Z,990.7
2018-02-02T09:47:11.073Z,990.7
2018-02-02T09:48:12.679Z,990.7
2018-02-02T09:49:14.284Z,990.7
2018-02-02T09:50:15.891Z,990.7
2018-02-02T09:51:17.495Z,990.7
2018-02-02T09:52:19.101Z,990.7
2018-02-02T09:53:20.714Z,990.7
2018-02-02T09:54:22.318Z,990.7
2018-02-02T09:55:23.931Z,990.7
2018-02-02T09:56:25.538Z,990.7
2018-02-02T09:57:27.151Z,990.7
2018-02-02T09:58:28.752Z,990.7
2018-02-02T09:59:30.364Z,990.7
2018-02-02T10:00:31.967Z,990.7
2018-02-02T10:01:33.579Z,990.7
2018-02-02T10:02:35.189Z,990.6
2018-02-02T10:03:36.801Z,990.7
2018-02-02T10:04:38.411Z,990.7
2018-02-02T10:05:40.020Z,990.7
2018-02-02T10:06:41.625Z,990.7
2018-02-02T10:07:43.236Z,990.7
2018-02-02T10:08:44.845Z,990.7
2018-02-02T10:09:46.455Z,990.7
2018-02-02T10:10:48.065Z,990.7
2018-02-02T10:11:49.679Z,990.7
2018-02-02T10:12:51.290Z,990.7
2018-02-02T10:13:52.892Z,990.7
2018-02-02T10:14:54.499Z,990.8
2018-02-02T10:15:56.112Z,990.8
2018-02-02T10:16:57.715Z,990.8
2018-02-02T10:17:59.332Z,990.8
2018-02-02T10:19:00.938Z,990.8
2018-02-02T10:20:02.548Z,990.8
2018-02-02T10:21:04.158Z,990.8
2018-02-02T10:22:05.763Z,990.9
2018-02-02T10:23:07.371Z,990.9
2018-02-02T10:24:08.983Z,990.9
2018-02-02T10:25:10.590Z,990.9
2018-02-02T10:26:12.197Z,990.9
2018-02-02T10:27:13.810Z,990.9
2018-02-02T10:28:15.413Z,990.9
2018-02-02T10:29:17.020Z,990.9
2018-02-02T10:30:18.634Z,991.0
2018-02-02T10:31:20.281Z,990.9
2018-02-02T10:32:21.848Z,990.9
2018-02-02T10:33:23.463Z,990.9
2018-02-02T10:34:25.068Z,990.9
2018-02-02T10:35:26.679Z,991.0
2018-02-02T10:36:28.289Z,991.0
2018-02-02T10:37:29.894Z,991.0
2018-02-02T10:38:31.514Z,991.0
2018-02-02T10:39:33.117Z,991.0
2018-02-02T10:40:34.728Z,991.0
2018-02-02T10:41:36.338Z,991.0
2018-02-02T10:42:37.945Z,991.0
2018-02-02T10:43:39.550Z,991.0
2018-02-02T10:44:41.164Z,991.0
2018-02-02T10:45:42.773Z,991.0
2018-02-02T10:46:44.385Z,991.0
2018-02-02T10:47:45.994Z,991.0
2018-02-02T10:48:47.603Z,991.0
2018-02-02T10:49:49.208Z,991.0
2018-02-02T10:50:50.821Z,991.0
2018-02-02T10:51:52.429Z,991.0
2018-02-02T10:52:54.035Z,991.0
2018-02-02T10:53:55.651Z,991.0
2018-02-02T10:54:57.259Z,991.0
2018-02-02T10:55:58.872Z,991.0
2018-02-02T10:57:00.475Z,991.1
2018-02-02T10:58:02.089Z,991.1
2018-02-02T10:59:03.692Z,991.1
2018-02-02T11:00:05.305Z,991.1
2018-02-02T11:01:06.914Z,991.1
2018-02-02T11:02:08.527Z,991.1
2018-02-02T11:03:10.133Z,991.1
2018-02-02T11:04:11.751Z,991.1
2018-02-02T11:05:13.352Z,991.1
2018-02-02T11:06:14.968Z,991.1
2018-02-02T11:07:16.573Z,991.1
2018-02-02T11:08:18.181Z,991.1
2018-02-02T11:09:19.796Z,991.1
2018-02-02T11:10:21.405Z,991.1
2018-02-02T11:11:23.012Z,991.1
2018-02-02T11:12:24.621Z,991.1
2018-02-02T11:13:26.235Z,991.1
2018-02-02T11:14:27.847Z,991.1
2018-02-02T11:15:29.455Z,991.1
2018-02-02T11:16:31.063Z,991.1
2018-02-02T11:17:32.675Z,991.1
2018-02-02T11:18:34.288Z,991.1
2018-02-02T11:19:35.890Z,991.1
2018-02-02T11:20:37.500Z,991.1
2018-02-02T11:21:39.114Z,991.1
2018-02-02T11:22:40.726Z,991.1
2018-02-02T11:23:42.421Z,991.1
2018-02-02T11:24:44.030Z,991.1
2018-02-02T11:25:45.636Z,991.2
2018-02-02T11:26:47.243Z,991.1
2018-02-02T11:27:48.853Z,991.1
2018-02-02T11:28:50.465Z,991.2
2018-02-02T11:29:52.070Z,991.1
2018-02-02T11:30:53.679Z,991.2
2018-02-02T11:31:55.291Z,991.1
2018-02-02T11:32:56.902Z,991.2
2018-02-02T11:33:58.508Z,991.2
2018-02-02T11:35:00.114Z,991.2
2018-02-02T11:36:01.730Z,991.2
2018-02-02T11:37:03.341Z,991.2
2018-02-02T11:38:04.948Z,991.2
2018-02-02T11:39:06.559Z,991.2
2018-02-02T11:40:08.250Z,991.3
2018-02-02T11:41:09.846Z,991.2
2018-02-02T11:42:11.461Z,991.3
2018-02-02T11:43:13.070Z,991.3
2018-02-02T11:44:14.680Z,991.2
2018-02-02T11:45:16.287Z,991.2
2018-02-02T11:46:17.897Z,991.2
2018-02-02T11:47:19.507Z,991.2
2018-02-02T11:48:21.135Z,991.2
2018-02-02T11:49:22.721Z,991.2
2018-02-02T11:50:24.333Z,991.3
2018-02-02T11:51:25.942Z,991.3
2018-02-02T11:52:27.556Z,991.3
2018-02-02T11:53:29.160Z,991.3
2018-02-02T11:54:30.777Z,991.3
2018-02-02T11:55:32.379Z,991.2
2018-02-02T11:56:33.990Z,991.2
2018-02-02T11:57:35.596Z,991.3
2018-02-02T11:58:37.209Z,991.3
2018-02-02T11:59:38.829Z,991.3
2018-02-02T12:00:40.441Z,991.3
2018-02-02T12:01:42.045Z,991.3
2018-02-02T12:02:43.655Z,991.3
2018-02-02T12:03:45.258Z,991.3
2018-02-02T12:04:46.869Z,991.3
2018-02-02T12:05:48.481Z,991.3
2018-02-02T12:06:50.087Z,991.3
2018-02-02T12:07:51.696Z,991.3
2018-02-02T12:08:53.302Z,991.3
2018-02-02T12:09:54.914Z,991.3
2018-02-02T12:10:56.520Z,991.3
2018-02-02T12:11:58.136Z,991.3
2018-02-02T12:12:59.745Z,991.3
2018-02-02T12:14:01.360Z,991.4
2018-02-02T12:15:02.966Z,991.4
2018-02-02T12:16:04.576Z,991.4
2018-02-02T12:17:06.181Z,991.4
2018-02-02T12:18:07.794Z,991.3
2018-02-02T12:19:09.404Z,991.3
2018-02-02T12:20:11.018Z,991.4
2018-02-02T12:21:12.627Z,991.3
2018-02-02T12:22:14.232Z,991.4
2018-02-02T12:23:15.845Z,991.4
2018-02-02T12:24:17.456Z,991.4
2018-02-02T12:25:19.062Z,991.4
2018-02-02T12:26:20.668Z,991.4
2018-02-02T12:27:22.282Z,991.4
2018-02-02T12:28:23.893Z,991.4
2018-02-02T12:29:25.504Z,991.3
2018-02-02T12:30:27.111Z,991.3
2018-02-02T12:31:28.723Z,991.3
2018-02-02T12:32:30.335Z,991.3
2018-02-02T12:33:31.942Z,991.3
2018-02-02T12:34:33.551Z,991.3
2018-02-02T12:35:35.167Z,991.3
2018-02-02T12:36:36.776Z,991.3
2018-02-02T12:37:38.384Z,991.3
2018-02-02T12:38:39.998Z,991.3
2018-02-02T12:39:41.605Z,991.3
2018-02-02T12:40:43.215Z,991.2
2018-02-02T12:41:44.828Z,991.3
2018-02-02T12:42:46.441Z,991.3
2018-02-02T12:43:48.047Z,991.3
2018-02-02T12:44:49.658Z,991.3
2018-02-02T12:45:51.267Z,991.3
2018-02-02T12:46:52.877Z,991.4
2018-02-02T12:47:54.489Z,991.3
2018-02-02T12:48:56.105Z,991.4
2018-02-02T12:49:57.713Z,991.4
2018-02-02T12:50:59.328Z,991.4
2018-02-02T12:52:00.935Z,991.5
2018-02-02T12:53:02.546Z,991.4
2018-02-02T12:54:04.152Z,991.5
2018-02-02T12:55:05.767Z,991.5
2018-02-02T12:56:07.377Z,991.5
2018-02-02T12:57:08.992Z,991.5
2018-02-02T12:58:10.601Z,991.5
2018-02-02T12:59:12.212Z,991.5
2018-02-02T13:00:13.822Z,991.5
2018-02-02T13:01:15.431Z,991.5
2018-02-02T13:02:17.046Z,991.5
2018-02-02T13:03:18.661Z,991.5
2018-02-02T13:04:20.268Z,991.5
2018-02-02T13:05:21.875Z,991.5
2018-02-02T13:06:23.488Z,991.5
2018-02-02T13:07:25.098Z,991.6
2018-02-02T13:08:26.705Z,991.6
2018-02-02T13:09:28.316Z,991.6
2018-02-02T13:10:29.934Z,991.6
2018-02-02T13:11:31.546Z,991.6
2018-02-02T13:12:33.152Z,991.6
2018-02-02T13:13:34.758Z,991.6
2018-02-02T13:14:36.370Z,991.6
2018-02-02T13:15:37.985Z,991.7
2018-02-02T13:16:39.592Z,991.7
2018-02-02T13:17:41.205Z,991.7
2018-02-02T13:18:42.837Z,991.7
2018-02-02T13:19:44.428Z,991.7